sensor_id;sensor_type;location;lat;lon;timestamp;P1;durP1;ratioP1;P2;durP2;ratioP2
71343;SDS011;59146;43.850;25.948;2023-02-01T00:01:38;22.10;;;12.40;;
71343;SDS011;59146;43.850;25.948;2023-02-01T00:04:04;21.52;;;12.73;;
71343;SDS011;59146;43.850;25.948;2023-02-01T00:06:29;20.40;;;11.50;;
71343;SDS011;59146;43.850;25.948;2023-02-01T00:08:55;21.23;;;12.18;;
71343;SDS011;59146;43.850;25.948;2023-02-01T00:11:22;18.65;;;12.05;;
71343;SDS011;59146;43.850;25.948;2023-02-01T00:13:48;19.85;;;11.90;;
71343;SDS011;59146;43.850;25.948;2023-02-01T00:16:14;21.63;;;11.75;;
71343;SDS011;59146;43.850;25.948;2023-02-01T00:18:42;17.17;;;10.55;;
71343;SDS011;59146;43.850;25.948;2023-02-01T00:21:12;18.40;;;11.70;;
71343;SDS011;59146;43.850;25.948;2023-02-01T00:23:38;16.35;;;10.20;;
71343;SDS011;59146;43.850;25.948;2023-02-01T00:26:05;18.65;;;11.50;;
71343;SDS011;59146;43.850;25.948;2023-02-01T00:28:35;19.05;;;11.07;;
71343;SDS011;59146;43.850;25.948;2023-02-01T00:31:01;19.67;;;11.43;;
71343;SDS011;59146;43.850;25.948;2023-02-01T00:33:28;16.83;;;11.27;;
71343;SDS011;59146;43.850;25.948;2023-02-01T00:36:03;15.50;;;10.20;;
71343;SDS011;59146;43.850;25.948;2023-02-01T00:38:29;18.60;;;11.07;;
71343;SDS011;59146;43.850;25.948;2023-02-01T00:41:15;17.58;;;11.35;;
71343;SDS011;59146;43.850;25.948;2023-02-01T00:43:42;17.23;;;10.38;;
71343;SDS011;59146;43.850;25.948;2023-02-01T00:46:08;17.60;;;10.30;;
71343;SDS011;59146;43.850;25.948;2023-02-01T00:48:34;17.70;;;10.35;;
71343;SDS011;59146;43.850;25.948;2023-02-01T00:51:01;20.17;;;11.43;;
71343;SDS011;59146;43.850;25.948;2023-02-01T00:53:31;13.63;;;9.05;;
71343;SDS011;59146;43.850;25.948;2023-02-01T00:55:56;19.83;;;11.05;;
71343;SDS011;59146;43.850;25.948;2023-02-01T00:58:22;16.73;;;10.18;;
71343;SDS011;59146;43.850;25.948;2023-02-01T01:03:40;19.38;;;10.07;;
71343;SDS011;59146;43.850;25.948;2023-02-01T01:06:08;13.83;;;9.03;;
71343;SDS011;59146;43.850;25.948;2023-02-01T01:08:36;18.83;;;10.38;;
71343;SDS011;59146;43.850;25.948;2023-02-01T01:11:08;17.48;;;10.45;;
71343;SDS011;59146;43.850;25.948;2023-02-01T01:13:39;20.60;;;11.75;;
71343;SDS011;59146;43.850;25.948;2023-02-01T01:16:05;17.83;;;11.25;;
71343;SDS011;59146;43.850;25.948;2023-02-01T01:18:32;17.77;;;10.65;;
71343;SDS011;59146;43.850;25.948;2023-02-01T01:20:59;16.75;;;10.35;;
71343;SDS011;59146;43.850;25.948;2023-02-01T01:23:24;18.88;;;12.00;;
71343;SDS011;59146;43.850;25.948;2023-02-01T01:25:50;17.08;;;9.77;;
71343;SDS011;59146;43.850;25.948;2023-02-01T01:28:16;16.00;;;9.77;;
71343;SDS011;59146;43.850;25.948;2023-02-01T01:30:41;15.25;;;11.27;;
71343;SDS011;59146;43.850;25.948;2023-02-01T01:33:06;21.95;;;11.77;;
71343;SDS011;59146;43.850;25.948;2023-02-01T01:35:32;19.23;;;10.00;;
71343;SDS011;59146;43.850;25.948;2023-02-01T01:37:58;19.58;;;10.20;;
71343;SDS011;59146;43.850;25.948;2023-02-01T01:40:25;16.33;;;10.27;;
71343;SDS011;59146;43.850;25.948;2023-02-01T01:42:51;15.38;;;10.38;;
71343;SDS011;59146;43.850;25.948;2023-02-01T01:45:26;16.50;;;9.43;;
71343;SDS011;59146;43.850;25.948;2023-02-01T01:47:58;18.38;;;10.32;;
71343;SDS011;59146;43.850;25.948;2023-02-01T01:50:30;19.38;;;10.52;;
71343;SDS011;59146;43.850;25.948;2023-02-01T01:53:02;14.68;;;9.93;;
71343;SDS011;59146;43.850;25.948;2023-02-01T01:55:32;15.60;;;10.50;;
71343;SDS011;59146;43.850;25.948;2023-02-01T01:58:02;17.98;;;10.55;;
71343;SDS011;59146;43.850;25.948;2023-02-01T02:00:31;17.17;;;11.00;;
71343;SDS011;59146;43.850;25.948;2023-02-01T02:02:58;15.82;;;9.82;;
71343;SDS011;59146;43.850;25.948;2023-02-01T02:05:29;17.58;;;9.70;;
71343;SDS011;59146;43.850;25.948;2023-02-01T02:07:56;16.77;;;10.35;;
71343;SDS011;59146;43.850;25.948;2023-02-01T02:10:24;16.50;;;10.35;;
71343;SDS011;59146;43.850;25.948;2023-02-01T02:13:10;18.73;;;10.85;;
71343;SDS011;59146;43.850;25.948;2023-02-01T02:15:37;14.50;;;9.32;;
71343;SDS011;59146;43.850;25.948;2023-02-01T02:18:31;18.70;;;10.55;;
71343;SDS011;59146;43.850;25.948;2023-02-01T02:34:51;17.95;;;10.95;;
71343;SDS011;59146;43.850;25.948;2023-02-01T02:37:36;16.58;;;10.93;;
71343;SDS011;59146;43.850;25.948;2023-02-01T02:40:15;17.95;;;10.50;;
71343;SDS011;59146;43.850;25.948;2023-02-01T02:45:50;21.33;;;11.05;;
71343;SDS011;59146;43.850;25.948;2023-02-01T02:48:38;17.70;;;10.90;;
71343;SDS011;59146;43.850;25.948;2023-02-01T02:51:12;17.92;;;11.65;;
71343;SDS011;59146;43.850;25.948;2023-02-01T02:54:33;18.90;;;10.70;;
71343;SDS011;59146;43.850;25.948;2023-02-01T02:57:22;16.25;;;10.95;;
71343;SDS011;59146;43.850;25.948;2023-02-01T03:00:10;16.02;;;10.55;;
71343;SDS011;59146;43.850;25.948;2023-02-01T03:02:57;18.20;;;10.63;;
71343;SDS011;59146;43.850;25.948;2023-02-01T03:05:43;16.92;;;9.95;;
71343;SDS011;59146;43.850;25.948;2023-02-01T03:08:12;18.60;;;10.52;;
71343;SDS011;59146;43.850;25.948;2023-02-01T03:23:48;18.40;;;10.38;;
71343;SDS011;59146;43.850;25.948;2023-02-01T03:26:17;21.73;;;11.95;;
71343;SDS011;59146;43.850;25.948;2023-02-01T03:28:48;18.48;;;11.98;;
71343;SDS011;59146;43.850;25.948;2023-02-01T03:31:20;15.57;;;10.07;;
71343;SDS011;59146;43.850;25.948;2023-02-01T03:33:46;19.02;;;11.85;;
71343;SDS011;59146;43.850;25.948;2023-02-01T03:39:02;19.30;;;10.93;;
71343;SDS011;59146;43.850;25.948;2023-02-01T03:44:16;20.42;;;11.15;;
71343;SDS011;59146;43.850;25.948;2023-02-01T03:46:52;16.77;;;11.13;;
71343;SDS011;59146;43.850;25.948;2023-02-01T03:49:28;20.80;;;11.68;;
71343;SDS011;59146;43.850;25.948;2023-02-01T03:51:59;19.83;;;11.55;;
71343;SDS011;59146;43.850;25.948;2023-02-01T03:54:26;18.10;;;11.38;;
71343;SDS011;59146;43.850;25.948;2023-02-01T03:56:54;18.75;;;11.88;;
71343;SDS011;59146;43.850;25.948;2023-02-01T03:59:22;16.55;;;10.70;;
71343;SDS011;59146;43.850;25.948;2023-02-01T04:01:49;17.77;;;10.18;;
71343;SDS011;59146;43.850;25.948;2023-02-01T04:04:15;15.50;;;9.77;;
71343;SDS011;59146;43.850;25.948;2023-02-01T04:06:48;14.75;;;8.90;;
71343;SDS011;59146;43.850;25.948;2023-02-01T04:09:14;13.60;;;9.05;;
71343;SDS011;59146;43.850;25.948;2023-02-01T04:11:40;16.35;;;8.73;;
71343;SDS011;59146;43.850;25.948;2023-02-01T04:14:05;17.73;;;8.80;;
71343;SDS011;59146;43.850;25.948;2023-02-01T04:16:31;13.00;;;8.65;;
71343;SDS011;59146;43.850;25.948;2023-02-01T04:18:57;13.38;;;8.30;;
71343;SDS011;59146;43.850;25.948;2023-02-01T04:21:23;16.17;;;8.50;;
71343;SDS011;59146;43.850;25.948;2023-02-01T04:23:49;12.50;;;7.65;;
71343;SDS011;59146;43.850;25.948;2023-02-01T04:26:15;17.85;;;10.25;;
71343;SDS011;59146;43.850;25.948;2023-02-01T04:28:41;10.95;;;6.80;;
71343;SDS011;59146;43.850;25.948;2023-02-01T04:31:06;10.73;;;6.03;;
71343;SDS011;59146;43.850;25.948;2023-02-01T04:33:32;16.25;;;6.65;;
71343;SDS011;59146;43.850;25.948;2023-02-01T04:35:57;11.65;;;6.55;;
71343;SDS011;59146;43.850;25.948;2023-02-01T04:38:23;11.32;;;6.93;;
71343;SDS011;59146;43.850;25.948;2023-02-01T04:40:48;11.43;;;7.53;;
71343;SDS011;59146;43.850;25.948;2023-02-01T04:43:14;16.10;;;6.55;;
71343;SDS011;59146;43.850;25.948;2023-02-01T04:45:40;12.23;;;6.43;;
71343;SDS011;59146;43.850;25.948;2023-02-01T04:48:06;9.20;;;5.97;;
71343;SDS011;59146;43.850;25.948;2023-02-01T04:50:31;14.07;;;6.55;;
71343;SDS011;59146;43.850;25.948;2023-02-01T04:52:57;11.02;;;6.18;;
71343;SDS011;59146;43.850;25.948;2023-02-01T04:55:22;10.20;;;5.93;;
71343;SDS011;59146;43.850;25.948;2023-02-01T04:57:47;8.35;;;5.63;;
71343;SDS011;59146;43.850;25.948;2023-02-01T05:00:13;11.98;;;7.03;;
71343;SDS011;59146;43.850;25.948;2023-02-01T05:02:38;13.52;;;6.35;;
71343;SDS011;59146;43.850;25.948;2023-02-01T05:05:04;13.05;;;5.80;;
71343;SDS011;59146;43.850;25.948;2023-02-01T05:07:30;13.40;;;6.80;;
71343;SDS011;59146;43.850;25.948;2023-02-01T05:09:55;15.10;;;7.38;;
71343;SDS011;59146;43.850;25.948;2023-02-01T05:12:21;11.07;;;6.90;;
71343;SDS011;59146;43.850;25.948;2023-02-01T05:15:04;15.00;;;7.30;;
71343;SDS011;59146;43.850;25.948;2023-02-01T05:17:30;16.45;;;8.45;;
71343;SDS011;59146;43.850;25.948;2023-02-01T05:19:56;20.02;;;11.18;;
71343;SDS011;59146;43.850;25.948;2023-02-01T05:22:22;19.92;;;9.20;;
71343;SDS011;59146;43.850;25.948;2023-02-01T05:24:47;14.98;;;7.20;;
71343;SDS011;59146;43.850;25.948;2023-02-01T05:27:12;18.13;;;7.93;;
71343;SDS011;59146;43.850;25.948;2023-02-01T05:29:38;13.52;;;7.88;;
71343;SDS011;59146;43.850;25.948;2023-02-01T05:32:03;16.38;;;7.10;;
71343;SDS011;59146;43.850;25.948;2023-02-01T05:34:29;14.52;;;7.13;;
71343;SDS011;59146;43.850;25.948;2023-02-01T05:36:54;13.68;;;7.28;;
71343;SDS011;59146;43.850;25.948;2023-02-01T05:39:20;12.05;;;6.93;;
71343;SDS011;59146;43.850;25.948;2023-02-01T05:41:45;15.55;;;7.82;;
71343;SDS011;59146;43.850;25.948;2023-02-01T05:44:11;13.85;;;7.00;;
71343;SDS011;59146;43.850;25.948;2023-02-01T05:46:36;10.35;;;6.97;;
71343;SDS011;59146;43.850;25.948;2023-02-01T05:49:02;12.15;;;7.28;;
71343;SDS011;59146;43.850;25.948;2023-02-01T05:51:29;15.48;;;8.10;;
71343;SDS011;59146;43.850;25.948;2023-02-01T05:53:54;14.73;;;7.30;;
71343;SDS011;59146;43.850;25.948;2023-02-01T05:56:19;15.98;;;8.75;;
71343;SDS011;59146;43.850;25.948;2023-02-01T05:58:45;14.95;;;9.05;;
71343;SDS011;59146;43.850;25.948;2023-02-01T06:01:10;13.57;;;8.65;;
71343;SDS011;59146;43.850;25.948;2023-02-01T06:03:36;11.57;;;8.48;;
71343;SDS011;59146;43.850;25.948;2023-02-01T06:06:02;13.63;;;9.00;;
71343;SDS011;59146;43.850;25.948;2023-02-01T06:08:27;17.05;;;8.80;;
71343;SDS011;59146;43.850;25.948;2023-02-01T06:11:04;15.40;;;9.18;;
71343;SDS011;59146;43.850;25.948;2023-02-01T06:13:30;18.55;;;10.70;;
71343;SDS011;59146;43.850;25.948;2023-02-01T06:15:56;14.02;;;8.07;;
71343;SDS011;59146;43.850;25.948;2023-02-01T06:18:22;12.95;;;8.18;;
71343;SDS011;59146;43.850;25.948;2023-02-01T06:20:55;14.85;;;9.30;;
71343;SDS011;59146;43.850;25.948;2023-02-01T06:23:21;15.85;;;8.00;;
71343;SDS011;59146;43.850;25.948;2023-02-01T06:25:51;10.70;;;8.00;;
71343;SDS011;59146;43.850;25.948;2023-02-01T06:28:17;11.95;;;7.32;;
71343;SDS011;59146;43.850;25.948;2023-02-01T06:30:42;21.10;;;7.50;;
71343;SDS011;59146;43.850;25.948;2023-02-01T06:33:11;11.57;;;7.07;;
71343;SDS011;59146;43.850;25.948;2023-02-01T06:35:42;11.88;;;7.07;;
71343;SDS011;59146;43.850;25.948;2023-02-01T06:38:09;12.20;;;7.10;;
71343;SDS011;59146;43.850;25.948;2023-02-01T06:40:36;13.25;;;7.28;;
71343;SDS011;59146;43.850;25.948;2023-02-01T06:43:02;13.18;;;7.85;;
71343;SDS011;59146;43.850;25.948;2023-02-01T06:45:27;15.70;;;7.63;;
71343;SDS011;59146;43.850;25.948;2023-02-01T06:47:53;10.90;;;7.57;;
71343;SDS011;59146;43.850;25.948;2023-02-01T06:50:18;11.63;;;6.32;;
71343;SDS011;59146;43.850;25.948;2023-02-01T06:52:43;19.52;;;11.07;;
71343;SDS011;59146;43.850;25.948;2023-02-01T06:55:09;17.27;;;11.73;;
71343;SDS011;59146;43.850;25.948;2023-02-01T06:57:34;17.02;;;9.13;;
71343;SDS011;59146;43.850;25.948;2023-02-01T07:00:01;13.40;;;7.32;;
71343;SDS011;59146;43.850;25.948;2023-02-01T07:02:28;12.63;;;7.90;;
71343;SDS011;59146;43.850;25.948;2023-02-01T07:04:53;13.00;;;8.00;;
71343;SDS011;59146;43.850;25.948;2023-02-01T07:07:18;45.88;;;23.33;;
71343;SDS011;59146;43.850;25.948;2023-02-01T07:09:45;15.63;;;9.27;;
71343;SDS011;59146;43.850;25.948;2023-02-01T07:12:10;20.85;;;7.82;;
71343;SDS011;59146;43.850;25.948;2023-02-01T07:14:35;10.30;;;7.20;;
71343;SDS011;59146;43.850;25.948;2023-02-01T07:17:01;9.60;;;7.22;;
71343;SDS011;59146;43.850;25.948;2023-02-01T07:19:26;14.63;;;7.90;;
71343;SDS011;59146;43.850;25.948;2023-02-01T07:21:52;11.90;;;8.10;;
71343;SDS011;59146;43.850;25.948;2023-02-01T07:24:17;10.63;;;7.25;;
71343;SDS011;59146;43.850;25.948;2023-02-01T07:26:42;12.75;;;7.40;;
71343;SDS011;59146;43.850;25.948;2023-02-01T07:29:08;13.35;;;7.90;;
71343;SDS011;59146;43.850;25.948;2023-02-01T07:31:33;11.95;;;7.78;;
71343;SDS011;59146;43.850;25.948;2023-02-01T07:33:59;11.20;;;7.40;;
71343;SDS011;59146;43.850;25.948;2023-02-01T07:36:25;10.48;;;7.68;;
71343;SDS011;59146;43.850;25.948;2023-02-01T07:38:51;12.48;;;8.20;;
71343;SDS011;59146;43.850;25.948;2023-02-01T07:41:17;13.68;;;7.55;;
71343;SDS011;59146;43.850;25.948;2023-02-01T07:43:43;14.48;;;9.07;;
71343;SDS011;59146;43.850;25.948;2023-02-01T07:46:09;17.77;;;8.32;;
71343;SDS011;59146;43.850;25.948;2023-02-01T07:48:35;13.90;;;7.80;;
71343;SDS011;59146;43.850;25.948;2023-02-01T07:51:11;18.52;;;9.05;;
71343;SDS011;59146;43.850;25.948;2023-02-01T07:53:38;12.40;;;8.25;;
71343;SDS011;59146;43.850;25.948;2023-02-01T07:56:08;11.80;;;7.03;;
71343;SDS011;59146;43.850;25.948;2023-02-01T07:58:36;16.98;;;8.50;;
71343;SDS011;59146;43.850;25.948;2023-02-01T08:01:02;13.25;;;8.57;;
71343;SDS011;59146;43.850;25.948;2023-02-01T08:03:49;15.02;;;7.97;;
71343;SDS011;59146;43.850;25.948;2023-02-01T08:06:16;11.63;;;7.85;;
71343;SDS011;59146;43.850;25.948;2023-02-01T08:08:42;11.43;;;8.95;;
71343;SDS011;59146;43.850;25.948;2023-02-01T08:11:10;12.52;;;8.35;;
71343;SDS011;59146;43.850;25.948;2023-02-01T08:13:35;13.07;;;7.90;;
71343;SDS011;59146;43.850;25.948;2023-02-01T08:16:01;16.90;;;8.82;;
71343;SDS011;59146;43.850;25.948;2023-02-01T08:18:29;14.50;;;8.15;;
71343;SDS011;59146;43.850;25.948;2023-02-01T08:20:55;16.15;;;8.60;;
71343;SDS011;59146;43.850;25.948;2023-02-01T08:23:21;18.10;;;7.80;;
71343;SDS011;59146;43.850;25.948;2023-02-01T08:25:47;12.85;;;8.38;;
71343;SDS011;59146;43.850;25.948;2023-02-01T08:28:12;14.75;;;9.18;;
71343;SDS011;59146;43.850;25.948;2023-02-01T08:30:39;14.27;;;8.43;;
71343;SDS011;59146;43.850;25.948;2023-02-01T08:33:07;13.95;;;8.27;;
71343;SDS011;59146;43.850;25.948;2023-02-01T08:35:34;12.35;;;8.23;;
71343;SDS011;59146;43.850;25.948;2023-02-01T08:38:01;13.65;;;7.45;;
71343;SDS011;59146;43.850;25.948;2023-02-01T08:40:26;9.90;;;6.78;;
71343;SDS011;59146;43.850;25.948;2023-02-01T08:42:51;13.55;;;8.20;;
71343;SDS011;59146;43.850;25.948;2023-02-01T08:45:18;13.48;;;8.15;;
71343;SDS011;59146;43.850;25.948;2023-02-01T08:47:44;12.43;;;7.65;;
71343;SDS011;59146;43.850;25.948;2023-02-01T08:50:11;12.43;;;7.45;;
71343;SDS011;59146;43.850;25.948;2023-02-01T08:52:37;13.73;;;8.75;;
71343;SDS011;59146;43.850;25.948;2023-02-01T08:55:03;12.95;;;8.57;;
71343;SDS011;59146;43.850;25.948;2023-02-01T08:57:29;12.98;;;7.97;;
71343;SDS011;59146;43.850;25.948;2023-02-01T08:59:55;14.35;;;7.97;;
71343;SDS011;59146;43.850;25.948;2023-02-01T09:02:21;13.25;;;8.18;;
71343;SDS011;59146;43.850;25.948;2023-02-01T09:04:46;13.57;;;7.55;;
71343;SDS011;59146;43.850;25.948;2023-02-01T09:07:11;15.20;;;9.13;;
71343;SDS011;59146;43.850;25.948;2023-02-01T09:09:38;14.05;;;8.73;;
71343;SDS011;59146;43.850;25.948;2023-02-01T09:12:04;11.93;;;8.07;;
71343;SDS011;59146;43.850;25.948;2023-02-01T09:14:29;13.00;;;7.50;;
71343;SDS011;59146;43.850;25.948;2023-02-01T09:16:55;14.80;;;7.63;;
71343;SDS011;59146;43.850;25.948;2023-02-01T09:19:20;10.38;;;6.38;;
71343;SDS011;59146;43.850;25.948;2023-02-01T09:21:46;7.35;;;5.95;;
71343;SDS011;59146;43.850;25.948;2023-02-01T09:24:11;12.63;;;7.25;;
71343;SDS011;59146;43.850;25.948;2023-02-01T09:26:37;11.52;;;7.13;;
71343;SDS011;59146;43.850;25.948;2023-02-01T09:29:03;11.68;;;6.95;;
71343;SDS011;59146;43.850;25.948;2023-02-01T09:31:31;11.55;;;7.00;;
71343;SDS011;59146;43.850;25.948;2023-02-01T09:33:57;12.27;;;6.88;;
71343;SDS011;59146;43.850;25.948;2023-02-01T09:36:23;12.77;;;6.47;;
71343;SDS011;59146;43.850;25.948;2023-02-01T09:38:49;9.98;;;6.57;;
71343;SDS011;59146;43.850;25.948;2023-02-01T09:41:28;11.05;;;7.68;;
71343;SDS011;59146;43.850;25.948;2023-02-01T09:44:29;11.35;;;6.25;;
71343;SDS011;59146;43.850;25.948;2023-02-01T09:46:46;9.93;;;5.97;;
71343;SDS011;59146;43.850;25.948;2023-02-01T09:49:13;9.38;;;6.05;;
71343;SDS011;59146;43.850;25.948;2023-02-01T09:51:51;9.20;;;5.70;;
71343;SDS011;59146;43.850;25.948;2023-02-01T09:54:22;11.05;;;6.95;;
71343;SDS011;59146;43.850;25.948;2023-02-01T09:59:41;10.65;;;6.10;;
71343;SDS011;59146;43.850;25.948;2023-02-01T10:02:16;12.15;;;6.68;;
71343;SDS011;59146;43.850;25.948;2023-02-01T10:04:44;12.98;;;7.15;;
71343;SDS011;59146;43.850;25.948;2023-02-01T10:10:00;9.88;;;6.75;;
71343;SDS011;59146;43.850;25.948;2023-02-01T10:13:01;10.27;;;7.00;;
71343;SDS011;59146;43.850;25.948;2023-02-01T10:21:07;11.80;;;7.15;;
71343;SDS011;59146;43.850;25.948;2023-02-01T10:26:36;13.05;;;6.50;;
71343;SDS011;59146;43.850;25.948;2023-02-01T10:29:04;16.42;;;6.72;;
71343;SDS011;59146;43.850;25.948;2023-02-01T10:31:40;9.70;;;5.93;;
71343;SDS011;59146;43.850;25.948;2023-02-01T10:34:28;12.57;;;6.47;;
71343;SDS011;59146;43.850;25.948;2023-02-01T10:37:00;10.82;;;6.35;;
71343;SDS011;59146;43.850;25.948;2023-02-01T10:39:47;10.07;;;5.65;;
71343;SDS011;59146;43.850;25.948;2023-02-01T10:42:15;9.93;;;5.97;;
71343;SDS011;59146;43.850;25.948;2023-02-01T10:44:44;10.90;;;5.05;;
71343;SDS011;59146;43.850;25.948;2023-02-01T10:47:12;9.50;;;5.13;;
71343;SDS011;59146;43.850;25.948;2023-02-01T10:50:29;7.68;;;5.32;;
71343;SDS011;59146;43.850;25.948;2023-02-01T10:52:38;7.80;;;5.07;;
71343;SDS011;59146;43.850;25.948;2023-02-01T10:58:07;13.48;;;5.47;;
71343;SDS011;59146;43.850;25.948;2023-02-01T11:06:52;13.02;;;4.95;;
71343;SDS011;59146;43.850;25.948;2023-02-01T11:09:02;13.75;;;5.07;;
71343;SDS011;59146;43.850;25.948;2023-02-01T11:11:52;14.95;;;5.50;;
71343;SDS011;59146;43.850;25.948;2023-02-01T11:16:54;8.82;;;5.03;;
71343;SDS011;59146;43.850;25.948;2023-02-01T11:19:22;8.63;;;4.72;;
71343;SDS011;59146;43.850;25.948;2023-02-01T11:21:51;9.43;;;4.90;;
71343;SDS011;59146;43.850;25.948;2023-02-01T11:24:22;8.82;;;5.43;;
71343;SDS011;59146;43.850;25.948;2023-02-01T11:26:53;9.02;;;5.35;;
71343;SDS011;59146;43.850;25.948;2023-02-01T11:29:20;10.02;;;5.10;;
71343;SDS011;59146;43.850;25.948;2023-02-01T11:31:53;10.88;;;5.03;;
71343;SDS011;59146;43.850;25.948;2023-02-01T11:34:45;9.98;;;5.15;;
71343;SDS011;59146;43.850;25.948;2023-02-01T11:37:31;11.95;;;4.95;;
71343;SDS011;59146;43.850;25.948;2023-02-01T11:40:01;8.20;;;4.87;;
71343;SDS011;59146;43.850;25.948;2023-02-01T11:42:54;9.90;;;5.32;;
71343;SDS011;59146;43.850;25.948;2023-02-01T11:45:30;10.35;;;4.82;;
71343;SDS011;59146;43.850;25.948;2023-02-01T11:47:58;7.35;;;4.35;;
71343;SDS011;59146;43.850;25.948;2023-02-01T11:50:28;10.35;;;5.45;;
71343;SDS011;59146;43.850;25.948;2023-02-01T11:53:47;10.82;;;5.15;;
71343;SDS011;59146;43.850;25.948;2023-02-01T12:07:13;7.78;;;5.10;;
71343;SDS011;59146;43.850;25.948;2023-02-01T12:25:27;10.15;;;4.30;;
71343;SDS011;59146;43.850;25.948;2023-02-01T12:28:31;5.32;;;4.00;;
71343;SDS011;59146;43.850;25.948;2023-02-01T12:39:43;8.43;;;4.07;;
71343;SDS011;59146;43.850;25.948;2023-02-01T12:42:31;6.05;;;3.42;;
71343;SDS011;59146;43.850;25.948;2023-02-01T12:45:02;8.32;;;3.67;;
71343;SDS011;59146;43.850;25.948;2023-02-01T12:47:52;7.82;;;4.05;;
71343;SDS011;59146;43.850;25.948;2023-02-01T12:51:07;7.15;;;3.45;;
71343;SDS011;59146;43.850;25.948;2023-02-01T12:53:42;7.15;;;3.10;;
71343;SDS011;59146;43.850;25.948;2023-02-01T12:56:42;7.68;;;3.28;;
71343;SDS011;59146;43.850;25.948;2023-02-01T12:59:24;7.35;;;3.83;;
71343;SDS011;59146;43.850;25.948;2023-02-01T13:04:59;6.53;;;3.22;;
71343;SDS011;59146;43.850;25.948;2023-02-01T13:07:34;6.60;;;3.40;;
71343;SDS011;59146;43.850;25.948;2023-02-01T13:12:43;6.22;;;3.75;;
71343;SDS011;59146;43.850;25.948;2023-02-01T13:15:24;4.60;;;2.97;;
71343;SDS011;59146;43.850;25.948;2023-02-01T13:18:04;9.30;;;3.92;;
71343;SDS011;59146;43.850;25.948;2023-02-01T13:20:33;7.05;;;3.00;;
71343;SDS011;59146;43.850;25.948;2023-02-01T13:25:46;7.00;;;3.13;;
71343;SDS011;59146;43.850;25.948;2023-02-01T13:28:32;8.02;;;3.22;;
71343;SDS011;59146;43.850;25.948;2023-02-01T13:36:43;7.63;;;2.88;;
71343;SDS011;59146;43.850;25.948;2023-02-01T13:42:34;8.00;;;3.58;;
71343;SDS011;59146;43.850;25.948;2023-02-01T13:45:22;9.15;;;3.05;;
71343;SDS011;59146;43.850;25.948;2023-02-01T13:47:52;8.20;;;2.70;;
71343;SDS011;59146;43.850;25.948;2023-02-01T13:53:59;5.50;;;3.10;;
71343;SDS011;59146;43.850;25.948;2023-02-01T13:58:40;6.32;;;2.70;;
71343;SDS011;59146;43.850;25.948;2023-02-01T14:03:48;3.70;;;2.30;;
71343;SDS011;59146;43.850;25.948;2023-02-01T14:16:44;6.38;;;2.60;;
71343;SDS011;59146;43.850;25.948;2023-02-01T14:19:35;7.28;;;2.72;;
71343;SDS011;59146;43.850;25.948;2023-02-01T14:22:46;7.43;;;2.80;;
71343;SDS011;59146;43.850;25.948;2023-02-01T14:24:53;5.95;;;3.20;;
71343;SDS011;59146;43.850;25.948;2023-02-01T14:27:25;9.63;;;3.20;;
71343;SDS011;59146;43.850;25.948;2023-02-01T14:29:57;4.70;;;2.65;;
71343;SDS011;59146;43.850;25.948;2023-02-01T14:34:53;11.20;;;2.97;;
71343;SDS011;59146;43.850;25.948;2023-02-01T14:42:46;8.73;;;2.42;;
71343;SDS011;59146;43.850;25.948;2023-02-01T15:03:59;6.38;;;2.80;;
71343;SDS011;59146;43.850;25.948;2023-02-01T15:06:46;7.15;;;3.00;;
71343;SDS011;59146;43.850;25.948;2023-02-01T15:14:33;6.45;;;2.55;;
71343;SDS011;59146;43.850;25.948;2023-02-01T15:20:19;4.53;;;2.50;;
71343;SDS011;59146;43.850;25.948;2023-02-01T15:25:21;6.10;;;3.72;;
71343;SDS011;59146;43.850;25.948;2023-02-01T15:27:49;5.93;;;3.00;;
71343;SDS011;59146;43.850;25.948;2023-02-01T15:32:51;6.70;;;3.08;;
71343;SDS011;59146;43.850;25.948;2023-02-01T15:35:32;5.75;;;3.40;;
71343;SDS011;59146;43.850;25.948;2023-02-01T15:38:29;6.70;;;2.95;;
71343;SDS011;59146;43.850;25.948;2023-02-01T15:43:29;8.85;;;3.53;;
71343;SDS011;59146;43.850;25.948;2023-02-01T15:46:01;8.60;;;2.90;;
71343;SDS011;59146;43.850;25.948;2023-02-01T15:48:39;4.85;;;2.65;;
71343;SDS011;59146;43.850;25.948;2023-02-01T15:51:11;5.45;;;3.15;;
71343;SDS011;59146;43.850;25.948;2023-02-01T15:53:39;5.38;;;2.90;;
71343;SDS011;59146;43.850;25.948;2023-02-01T15:56:09;11.77;;;2.92;;
71343;SDS011;59146;43.850;25.948;2023-02-01T15:58:35;4.88;;;3.33;;
71343;SDS011;59146;43.850;25.948;2023-02-01T16:01:02;5.75;;;3.80;;
71343;SDS011;59146;43.850;25.948;2023-02-01T16:03:44;5.43;;;4.23;;
71343;SDS011;59146;43.850;25.948;2023-02-01T16:06:26;7.13;;;4.28;;
71343;SDS011;59146;43.850;25.948;2023-02-01T16:08:55;12.27;;;5.28;;
71343;SDS011;59146;43.850;25.948;2023-02-01T16:13:49;6.93;;;4.45;;
71343;SDS011;59146;43.850;25.948;2023-02-01T16:16:14;16.48;;;7.88;;
71343;SDS011;59146;43.850;25.948;2023-02-01T16:18:40;9.82;;;5.90;;
71343;SDS011;59146;43.850;25.948;2023-02-01T16:21:06;8.23;;;5.20;;
71343;SDS011;59146;43.850;25.948;2023-02-01T16:23:35;9.45;;;4.97;;
71343;SDS011;59146;43.850;25.948;2023-02-01T16:26:02;10.55;;;5.03;;
71343;SDS011;59146;43.850;25.948;2023-02-01T16:28:28;12.48;;;4.38;;
71343;SDS011;59146;43.850;25.948;2023-02-01T16:30:53;10.10;;;5.22;;
71343;SDS011;59146;43.850;25.948;2023-02-01T16:33:19;7.97;;;4.30;;
71343;SDS011;59146;43.850;25.948;2023-02-01T16:35:47;9.25;;;5.05;;
71343;SDS011;59146;43.850;25.948;2023-02-01T16:38:14;6.65;;;4.85;;
71343;SDS011;59146;43.850;25.948;2023-02-01T16:40:43;12.55;;;5.50;;
71343;SDS011;59146;43.850;25.948;2023-02-01T16:43:13;9.55;;;5.90;;
71343;SDS011;59146;43.850;25.948;2023-02-01T16:45:40;9.93;;;5.65;;
71343;SDS011;59146;43.850;25.948;2023-02-01T16:48:10;10.60;;;5.63;;
71343;SDS011;59146;43.850;25.948;2023-02-01T16:50:51;9.93;;;5.75;;
71343;SDS011;59146;43.850;25.948;2023-02-01T16:53:19;9.50;;;5.38;;
71343;SDS011;59146;43.850;25.948;2023-02-01T16:55:45;15.20;;;5.63;;
71343;SDS011;59146;43.850;25.948;2023-02-01T16:58:12;9.57;;;5.97;;
71343;SDS011;59146;43.850;25.948;2023-02-01T17:00:38;9.00;;;6.15;;
71343;SDS011;59146;43.850;25.948;2023-02-01T17:03:04;12.73;;;6.00;;
71343;SDS011;59146;43.850;25.948;2023-02-01T17:05:31;12.60;;;5.95;;
71343;SDS011;59146;43.850;25.948;2023-02-01T17:07:58;10.90;;;7.20;;
71343;SDS011;59146;43.850;25.948;2023-02-01T17:10:29;12.77;;;6.30;;
71343;SDS011;59146;43.850;25.948;2023-02-01T17:12:55;12.15;;;6.38;;
71343;SDS011;59146;43.850;25.948;2023-02-01T17:15:22;12.10;;;6.43;;
71343;SDS011;59146;43.850;25.948;2023-02-01T17:17:50;12.68;;;6.80;;
71343;SDS011;59146;43.850;25.948;2023-02-01T17:20:23;11.88;;;6.72;;
71343;SDS011;59146;43.850;25.948;2023-02-01T17:22:51;14.05;;;7.75;;
71343;SDS011;59146;43.850;25.948;2023-02-01T17:25:18;12.85;;;7.53;;
71343;SDS011;59146;43.850;25.948;2023-02-01T17:27:45;12.85;;;7.72;;
71343;SDS011;59146;43.850;25.948;2023-02-01T17:30:12;13.55;;;6.88;;
71343;SDS011;59146;43.850;25.948;2023-02-01T17:32:38;12.98;;;6.22;;
71343;SDS011;59146;43.850;25.948;2023-02-01T17:35:04;8.85;;;5.75;;
71343;SDS011;59146;43.850;25.948;2023-02-01T17:37:31;12.65;;;6.47;;
71343;SDS011;59146;43.850;25.948;2023-02-01T17:40:00;15.93;;;6.32;;